Time;durP1;ratioP1;P1;durP2;ratioP2;P2;SDS_P1;SDS_P2;PMS_P1;PMS_P2;Temp;Humidity;BMP_temperature;BMP_pressure;BME280_temperature;BME280_humidity;BME280_pressure;Samples;Min_cycle;Max_cycle;Signal;HPM_P1;HPM_P2
2023/09/29 00:00:48;;;;;;;27.83;7.63;;;15.40;99.90;;;;;;5024511;28;20033;-65
2023/09/29 00:03:17;;;;;;;25.50;7.35;;;15.40;99.90;;;;;;5026282;28;20274;-65
2023/09/29 00:05:46;;;;;;;21.08;6.40;;;15.40;99.90;;;;;;5025794;28;20053;-65
2023/09/29 00:08:16;;;;;;;22.90;6.30;;;15.40;99.90;;;;;;5024848;28;20361;-65
2023/09/29 00:10:45;;;;;;;24.45;7.20;;;15.40;99.90;;;;;;5010772;28;20562;-64
2023/09/29 00:13:12;;;;;;;22.25;6.30;;;15.50;99.90;;;;;;5035245;28;20133;-65
2023/09/29 00:15:38;;;;;;;19.98;6.05;;;15.50;99.90;;;;;;5033282;28;20192;-65
2023/09/29 00:18:05;;;;;;;23.25;6.10;;;15.60;99.90;;;;;;5034727;28;20040;-65
2023/09/29 00:20:31;;;;;;;21.90;6.05;;;15.60;99.90;;;;;;5030776;28;20577;-65
2023/09/29 00:22:59;;;;;;;23.15;6.10;;;15.60;99.90;;;;;;5035476;28;20037;-65
2023/09/29 00:25:25;;;;;;;18.48;5.80;;;15.60;99.90;;;;;;5034478;28;20638;-65
2023/09/29 00:27:52;;;;;;;23.25;6.55;;;15.60;99.90;;;;;;5031505;28;20274;-65
2023/09/29 00:30:18;;;;;;;22.10;6.03;;;15.60;99.90;;;;;;5017909;28;20077;-65
2023/09/29 00:32:48;;;;;;;18.05;5.88;;;15.60;99.90;;;;;;5052347;28;20039;-65
2023/09/29 00:35:37;;;;;;;23.70;6.10;;;15.60;99.90;;;;;;5035522;28;20045;-64
2023/09/29 00:38:01;;;;;;;21.65;6.07;;;15.60;99.90;;;;;;5027985;28;20114;-64
2023/09/29 00:40:28;;;;;;;27.58;6.85;;;15.70;99.90;;;;;;5034824;28;20040;-64
2023/09/29 00:42:54;;;;;;;27.38;6.72;;;15.70;99.90;;;;;;5036105;28;20486;-64
2023/09/29 00:45:23;;;;;;;25.60;6.93;;;15.70;99.90;;;;;;5033115;28;20037;-64
2023/09/29 00:47:51;;;;;;;30.88;6.78;;;15.70;99.90;;;;;;5031089;28;20037;-64
2023/09/29 00:50:19;;;;;;;24.05;6.78;;;15.60;99.90;;;;;;5046434;28;20047;-64
2023/09/29 00:52:47;;;;;;;28.30;6.60;;;15.60;99.90;;;;;;5039808;28;20044;-65
2023/09/29 00:55:16;;;;;;;20.60;6.00;;;15.60;99.90;;;;;;5034002;28;20041;-65
2023/09/29 00:57:43;;;;;;;23.40;6.57;;;15.60;99.90;;;;;;5033401;28;20049;-65
2023/09/29 01:00:18;;;;;;;19.83;6.03;;;15.60;99.90;;;;;;5013799;28;20100;-65
2023/09/29 01:02:44;;;;;;;22.95;6.15;;;15.70;99.90;;;;;;5032411;28;20063;-65
2023/09/29 01:05:12;;;;;;;26.58;6.32;;;15.70;99.90;;;;;;5016931;28;21569;-64
2023/09/29 01:07:39;;;;;;;20.17;6.28;;;15.70;99.90;;;;;;5035548;28;20049;-64
2023/09/29 01:10:05;;;;;;;21.60;6.25;;;15.70;99.90;;;;;;5035452;28;20129;-65
2023/09/29 01:12:31;;;;;;;25.85;7.00;;;15.70;99.90;;;;;;5037493;28;20428;-64
2023/09/29 01:14:57;;;;;;;22.88;6.28;;;15.70;99.90;;;;;;5034245;28;20247;-65
2023/09/29 01:17:25;;;;;;;23.98;5.95;;;15.70;99.90;;;;;;5031310;28;20343;-64
2023/09/29 01:19:51;;;;;;;22.75;6.03;;;15.70;99.90;;;;;;5034512;28;20045;-65
2023/09/29 01:22:17;;;;;;;21.23;6.47;;;15.70;99.90;;;;;;5037665;28;20570;-65
2023/09/29 01:24:44;;;;;;;27.65;6.68;;;15.60;99.90;;;;;;5038029;28;20495;-65
2023/09/29 01:27:10;;;;;;;20.92;6.22;;;15.60;99.90;;;;;;5019603;28;20094;-64
2023/09/29 01:29:36;;;;;;;25.52;6.50;;;15.60;99.90;;;;;;5039685;28;20378;-64
2023/09/29 01:32:02;;;;;;;24.27;6.70;;;15.60;99.90;;;;;;5037820;28;20390;-65
2023/09/29 01:34:31;;;;;;;23.20;5.82;;;15.60;99.90;;;;;;5022425;28;20535;-65
2023/09/29 01:36:59;;;;;;;20.85;5.95;;;15.60;99.90;;;;;;5032556;28;20075;-65
2023/09/29 01:39:25;;;;;;;17.90;5.32;;;15.60;99.90;;;;;;5033517;28;20053;-65
2023/09/29 01:41:52;;;;;;;22.98;5.55;;;15.50;99.90;;;;;;5034450;28;20716;-65
2023/09/29 01:44:17;;;;;;;21.38;6.03;;;15.50;99.90;;;;;;5037009;28;20131;-65
2023/09/29 01:46:43;;;;;;;20.98;5.68;;;15.60;99.90;;;;;;5034556;28;20040;-64
2023/09/29 01:49:09;;;;;;;16.92;5.47;;;15.60;99.90;;;;;;5037752;28;20240;-64
2023/09/29 01:51:35;;;;;;;19.85;5.35;;;15.60;99.90;;;;;;5017127;28;20076;-65
2023/09/29 01:54:00;;;;;;;22.38;5.97;;;15.70;99.90;;;;;;5016219;28;20680;-65
2023/09/29 01:56:26;;;;;;;20.70;5.72;;;15.70;99.90;;;;;;5019123;28;20045;-65
2023/09/29 01:58:52;;;;;;;19.95;5.28;;;15.60;99.90;;;;;;5037109;28;20457;-64
2023/09/29 02:01:17;;;;;;;18.38;4.70;;;15.70;99.90;;;;;;5034635;28;20046;-65
2023/09/29 02:03:48;;;;;;;18.23;5.50;;;15.60;99.90;;;;;;5033075;28;20041;-65
2023/09/29 02:06:15;;;;;;;21.42;5.13;;;15.70;99.90;;;;;;5037549;28;20514;-65
2023/09/29 02:08:41;;;;;;;19.08;4.82;;;15.70;99.90;;;;;;5039359;28;20984;-64
2023/09/29 02:11:08;;;;;;;25.75;5.80;;;15.70;99.90;;;;;;5039267;28;20052;-65
2023/09/29 02:13:34;;;;;;;20.65;5.57;;;15.80;99.90;;;;;;5037896;28;20430;-65
2023/09/29 02:16:00;;;;;;;21.60;5.47;;;15.80;99.90;;;;;;5037027;28;20101;-65
2023/09/29 02:18:27;;;;;;;19.63;5.38;;;15.80;99.90;;;;;;5021045;28;20367;-65
2023/09/29 02:20:55;;;;;;;19.65;5.00;;;15.80;99.90;;;;;;5039609;28;20070;-65
2023/09/29 02:23:22;;;;;;;18.92;5.28;;;15.70;99.90;;;;;;5038910;28;20048;-65
2023/09/29 02:25:48;;;;;;;21.85;5.13;;;15.80;99.90;;;;;;5035419;28;20053;-64
2023/09/29 02:28:14;;;;;;;21.30;5.45;;;15.80;99.90;;;;;;5036813;28;20609;-65
2023/09/29 02:30:40;;;;;;;21.75;5.22;;;15.80;99.90;;;;;;5037568;28;20370;-64
2023/09/29 02:33:06;;;;;;;22.23;5.68;;;15.70;99.90;;;;;;5031054;28;20898;-64
2023/09/29 02:35:32;;;;;;;19.80;5.43;;;15.80;99.90;;;;;;5036427;28;20235;-65
2023/09/29 02:37:59;;;;;;;17.65;5.00;;;15.80;99.90;;;;;;5036402;28;20419;-65
2023/09/29 02:40:24;;;;;;;18.40;4.63;;;15.80;99.90;;;;;;5037980;28;20041;-65
2023/09/29 02:42:50;;;;;;;21.65;4.70;;;15.80;99.90;;;;;;5015283;28;20049;-65
2023/09/29 02:45:17;;;;;;;22.15;5.28;;;15.80;99.90;;;;;;5038700;28;20032;-65
2023/09/29 02:47:46;;;;;;;19.35;4.50;;;15.90;99.90;;;;;;5012820;28;20505;-65
2023/09/29 02:50:12;;;;;;;16.40;4.65;;;15.90;99.90;;;;;;5034971;28;20036;-65
2023/09/29 02:52:40;;;;;;;19.35;5.07;;;15.90;99.90;;;;;;5037995;28;20090;-64
2023/09/29 02:55:10;;;;;;;18.17;4.18;;;15.90;99.90;;;;;;5013036;28;20667;-64
2023/09/29 02:57:36;;;;;;;17.48;4.28;;;15.90;99.90;;;;;;5017259;28;20396;-65
2023/09/29 03:00:18;;;;;;;20.70;4.72;;;15.90;99.90;;;;;;5034403;28;20037;-64
2023/09/29 03:02:44;;;;;;;21.27;5.07;;;15.90;99.90;;;;;;5036280;28;20125;-65
2023/09/29 03:05:11;;;;;;;25.25;5.20;;;15.90;99.90;;;;;;5012596;28;20108;-65
2023/09/29 03:07:37;;;;;;;17.23;4.47;;;15.90;99.90;;;;;;5034025;28;20047;-64
2023/09/29 03:10:07;;;;;;;19.65;4.65;;;15.90;99.90;;;;;;5031181;28;20360;-64
2023/09/29 03:12:33;;;;;;;19.15;4.30;;;15.90;99.90;;;;;;5029317;28;20075;-65
2023/09/29 03:14:59;;;;;;;16.50;3.85;;;15.90;99.90;;;;;;5017606;28;20040;-64
2023/09/29 03:17:24;;;;;;;20.60;4.80;;;16.00;99.90;;;;;;5012248;28;20497;-64
2023/09/29 03:19:52;;;;;;;16.55;4.38;;;16.00;99.90;;;;;;5032220;28;20407;-65
2023/09/29 03:22:18;;;;;;;16.88;4.05;;;15.90;99.90;;;;;;5034982;28;20140;-65
2023/09/29 03:24:44;;;;;;;20.35;4.40;;;15.90;99.90;;;;;;5017851;28;20107;-64
2023/09/29 03:27:10;;;;;;;19.38;4.25;;;15.90;99.90;;;;;;5032852;28;20433;-65
2023/09/29 03:29:36;;;;;;;23.60;4.93;;;15.90;99.90;;;;;;5029978;28;20325;-65
2023/09/29 03:32:03;;;;;;;19.05;3.75;;;15.90;99.90;;;;;;5036318;28;20365;-65
2023/09/29 03:34:28;;;;;;;18.60;4.30;;;15.80;99.90;;;;;;5016990;28;20073;-65
2023/09/29 03:36:54;;;;;;;16.48;4.07;;;15.90;99.90;;;;;;5036671;28;20645;-65
2023/09/29 03:39:20;;;;;;;19.80;4.25;;;15.80;99.90;;;;;;5013421;28;20040;-65
2023/09/29 03:41:45;;;;;;;16.50;3.85;;;15.80;99.90;;;;;;4995348;28;20049;-65
2023/09/29 03:44:12;;;;;;;16.92;4.63;;;15.80;99.90;;;;;;5012538;28;20395;-64
2023/09/29 03:46:38;;;;;;;16.63;4.38;;;15.80;99.90;;;;;;5027715;28;20102;-65
2023/09/29 03:49:05;;;;;;;20.00;4.18;;;15.80;99.90;;;;;;5037159;28;20054;-66
2023/09/29 03:51:30;;;;;;;12.93;3.72;;;15.80;99.90;;;;;;5013874;28;20617;-66
2023/09/29 03:53:57;;;;;;;18.77;4.45;;;15.80;99.90;;;;;;5031883;28;20044;-66
2023/09/29 03:56:23;;;;;;;16.15;3.78;;;15.90;99.90;;;;;;5035594;28;20071;-65
2023/09/29 03:58:55;;;;;;;19.17;3.92;;;15.90;99.90;;;;;;5031328;28;20414;-65
2023/09/29 04:01:22;;;;;;;19.33;4.32;;;16.00;99.90;;;;;;5035376;28;20045;-66
2023/09/29 04:03:48;;;;;;;16.75;4.07;;;16.00;99.90;;;;;;5030452;28;20049;-66
2023/09/29 04:06:14;;;;;;;16.17;4.60;;;16.00;99.90;;;;;;5035292;28;20348;-65
2023/09/29 04:08:40;;;;;;;16.50;4.05;;;16.00;99.90;;;;;;5018622;28;20037;-65
2023/09/29 04:11:06;;;;;;;15.98;4.10;;;16.00;99.90;;;;;;5031091;28;20572;-65
2023/09/29 04:13:31;;;;;;;20.38;4.43;;;16.00;99.90;;;;;;5032543;28;20053;-64
2023/09/29 04:16:01;;;;;;;15.52;4.75;;;16.10;99.90;;;;;;5029930;28;20055;-65
2023/09/29 04:18:27;;;;;;;17.02;4.43;;;16.00;99.90;;;;;;5033858;28;20041;-65
2023/09/29 04:20:53;;;;;;;17.70;4.85;;;16.10;99.90;;;;;;5011335;28;20395;-65
2023/09/29 04:23:19;;;;;;;17.27;4.85;;;16.10;99.90;;;;;;5019777;28;20462;-65
2023/09/29 04:25:44;;;;;;;17.15;4.65;;;16.10;99.90;;;;;;5042901;28;20142;-65
2023/09/29 04:28:10;;;;;;;15.50;4.72;;;16.10;99.90;;;;;;5039037;28;20068;-65
2023/09/29 04:30:36;;;;;;;22.17;5.63;;;16.10;99.90;;;;;;5041156;28;20142;-65
2023/09/29 04:33:01;;;;;;;17.48;5.75;;;16.10;99.90;;;;;;5023070;28;20375;-65
2023/09/29 04:35:27;;;;;;;18.65;5.60;;;16.10;99.90;;;;;;5032541;28;20084;-64
2023/09/29 04:37:53;;;;;;;18.95;5.32;;;16.10;99.90;;;;;;5018039;28;20267;-64
2023/09/29 04:40:18;;;;;;;17.15;5.22;;;16.10;99.90;;;;;;5047682;28;20076;-64
2023/09/29 04:42:45;;;;;;;15.85;5.30;;;16.10;99.90;;;;;;5039381;28;20144;-64
2023/09/29 04:45:10;;;;;;;17.92;4.65;;;16.10;99.90;;;;;;5037399;28;20543;-65
2023/09/29 04:47:36;;;;;;;19.00;5.85;;;16.10;99.90;;;;;;5035310;28;20049;-65
2023/09/29 04:50:02;;;;;;;15.93;5.63;;;16.10;99.90;;;;;;5038316;28;20560;-65
2023/09/29 04:52:28;;;;;;;19.65;5.90;;;16.10;99.90;;;;;;5038810;28;20229;-65
2023/09/29 04:54:53;;;;;;;19.45;5.97;;;16.20;99.90;;;;;;5036689;28;20044;-66
2023/09/29 04:57:19;;;;;;;17.05;5.93;;;16.10;99.90;;;;;;5034319;28;20120;-66
2023/09/29 04:59:45;;;;;;;15.48;5.60;;;16.20;99.90;;;;;;5040762;28;20445;-66
2023/09/29 05:02:11;;;;;;;19.83;5.95;;;16.20;99.90;;;;;;5032846;28;20041;-66
2023/09/29 05:04:37;;;;;;;13.73;5.90;;;16.20;99.90;;;;;;5039888;28;20254;-65
2023/09/29 05:07:02;;;;;;;21.88;6.32;;;16.30;99.90;;;;;;5034085;28;20045;-66
2023/09/29 05:09:28;;;;;;;17.30;6.57;;;16.30;99.90;;;;;;5038396;28;20415;-65
2023/09/29 05:11:54;;;;;;;14.20;6.03;;;16.30;99.90;;;;;;5017262;28;20226;-64
2023/09/29 05:14:19;;;;;;;22.48;6.47;;;16.30;99.90;;;;;;5035020;28;20041;-65
2023/09/29 05:16:47;;;;;;;19.95;7.47;;;16.20;99.90;;;;;;5035671;28;20052;-65
2023/09/29 05:19:13;;;;;;;15.48;6.78;;;16.20;99.90;;;;;;5038788;28;20044;-65
2023/09/29 05:21:38;;;;;;;16.80;7.28;;;16.10;99.90;;;;;;5038362;28;20037;-65
2023/09/29 05:24:04;;;;;;;19.15;7.57;;;16.00;99.90;;;;;;5015712;28;20584;-65
2023/09/29 05:26:30;;;;;;;21.60;8.45;;;16.00;99.90;;;;;;5015293;28;20044;-65
2023/09/29 05:28:56;;;;;;;19.88;8.50;;;16.00;99.90;;;;;;5035516;28;20361;-65
2023/09/29 05:31:22;;;;;;;20.83;8.80;;;15.90;99.90;;;;;;5014708;28;20124;-66
2023/09/29 05:33:48;;;;;;;20.00;8.38;;;15.90;99.90;;;;;;5033070;28;20248;-66
2023/09/29 05:36:14;;;;;;;23.45;8.48;;;15.90;99.90;;;;;;5034007;28;20113;-65
2023/09/29 05:38:40;;;;;;;21.95;8.93;;;15.90;99.90;;;;;;5034353;28;20808;-65
2023/09/29 05:41:05;;;;;;;20.83;8.32;;;16.00;99.90;;;;;;5029578;28;20037;-65
2023/09/29 05:43:31;;;;;;;19.13;8.45;;;16.00;99.90;;;;;;5038203;28;20044;-65
2023/09/29 05:45:58;;;;;;;18.92;8.23;;;16.10;99.90;;;;;;5041936;28;20325;-66
2023/09/29 05:48:23;;;;;;;18.02;8.23;;;16.20;99.90;;;;;;5040187;28;20088;-64
2023/09/29 05:50:50;;;;;;;19.55;8.50;;;16.20;99.90;;;;;;5039009;28;20494;-66
2023/09/29 05:53:16;;;;;;;18.30;7.85;;;16.10;99.90;;;;;;5018970;28;20045;-65
2023/09/29 05:55:42;;;;;;;16.77;7.85;;;16.20;99.90;;;;;;5021006;28;20087;-65
2023/09/29 05:58:08;;;;;;;18.92;7.72;;;16.20;99.90;;;;;;5039448;28;20186;-65
2023/09/29 06:00:34;;;;;;;19.67;7.95;;;16.30;99.90;;;;;;5031072;28;20056;-65
2023/09/29 06:03:00;;;;;;;16.15;7.55;;;16.30;99.90;;;;;;5034212;28;20084;-65
2023/09/29 06:05:26;;;;;;;19.60;7.68;;;16.30;99.90;;;;;;5039790;28;20127;-64
2023/09/29 06:07:52;;;;;;;18.92;8.00;;;16.30;99.90;;;;;;5037436;28;20824;-64
2023/09/29 06:10:18;;;;;;;19.85;8.35;;;16.40;99.90;;;;;;5012360;28;21384;-65
2023/09/29 06:12:44;;;;;;;18.58;7.50;;;16.40;99.90;;;;;;5018247;28;20279;-64
2023/09/29 06:15:11;;;;;;;20.80;7.75;;;16.50;99.90;;;;;;5037680;28;20040;-64
2023/09/29 06:17:37;;;;;;;13.98;7.47;;;16.40;99.90;;;;;;5035676;28;20036;-64
2023/09/29 06:20:04;;;;;;;20.08;7.63;;;16.50;99.90;;;;;;5039440;28;20052;-65
2023/09/29 06:22:29;;;;;;;16.67;7.32;;;16.50;99.90;;;;;;5037899;28;20529;-63
2023/09/29 06:24:55;;;;;;;16.45;7.57;;;16.50;99.90;;;;;;5017616;28;20052;-63
2023/09/29 06:27:21;;;;;;;17.52;7.60;;;16.60;99.90;;;;;;5039639;28;20227;-65
2023/09/29 06:29:50;;;;;;;16.20;7.32;;;16.60;99.90;;;;;;5036165;28;20082;-65
2023/09/29 06:32:16;;;;;;;16.23;7.60;;;16.70;99.90;;;;;;5037844;28;20040;-65
2023/09/29 06:34:42;;;;;;;14.77;7.20;;;16.70;99.90;;;;;;5039681;28;20044;-65
2023/09/29 06:37:09;;;;;;;13.88;7.93;;;16.70;99.90;;;;;;5017294;28;20109;-65
2023/09/29 06:39:35;;;;;;;16.13;8.27;;;16.60;99.90;;;;;;5038612;28;20456;-64
2023/09/29 06:42:04;;;;;;;14.23;8.10;;;16.70;99.90;;;;;;5016563;28;20240;-64
2023/09/29 06:44:32;;;;;;;17.10;8.75;;;16.60;99.90;;;;;;5013127;28;20105;-64
2023/09/29 06:46:58;;;;;;;18.60;8.75;;;16.60;99.90;;;;;;5028832;28;20462;-64
2023/09/29 06:49:24;;;;;;;18.48;9.25;;;16.70;99.90;;;;;;5039734;28;20055;-65
2023/09/29 06:51:49;;;;;;;16.00;8.90;;;16.70;99.90;;;;;;5035936;28;20091;-64
2023/09/29 06:54:15;;;;;;;19.67;9.85;;;16.70;99.90;;;;;;5037433;28;20047;-65
2023/09/29 06:56:41;;;;;;;18.33;9.75;;;16.60;99.90;;;;;;4998074;28;20049;-65
2023/09/29 06:59:07;;;;;;;19.98;10.13;;;16.60;99.90;;;;;;5037931;28;20566;-66
2023/09/29 07:01:34;;;;;;;17.73;10.20;;;16.70;99.90;;;;;;5036800;28;20093;-67
2023/09/29 07:04:00;;;;;;;14.85;9.30;;;16.70;99.90;;;;;;5035964;28;21376;-66
2023/09/29 07:06:25;;;;;;;22.52;9.82;;;16.80;99.90;;;;;;5038829;28;20610;-66
2023/09/29 07:08:52;;;;;;;16.20;9.00;;;16.90;99.90;;;;;;5037461;28;20029;-66
2023/09/29 07:11:18;;;;;;;17.75;10.25;;;16.90;99.90;;;;;;5035675;28;20060;-66
2023/09/29 07:13:45;;;;;;;17.08;9.90;;;16.90;99.90;;;;;;5016209;28;20597;-65
2023/09/29 07:16:11;;;;;;;19.38;9.80;;;16.90;99.90;;;;;;5018377;28;20344;-66
2023/09/29 07:18:36;;;;;;;20.27;9.65;;;17.00;99.90;;;;;;5039166;28;20040;-66
2023/09/29 07:21:02;;;;;;;21.88;10.10;;;17.00;99.90;;;;;;5037199;28;20143;-67
2023/09/29 07:23:30;;;;;;;17.25;9.77;;;17.00;99.90;;;;;;5039336;28;20049;-67
2023/09/29 07:25:55;;;;;;;18.90;9.55;;;17.00;99.90;;;;;;5040446;28;20135;-66
2023/09/29 07:28:21;;;;;;;19.75;9.70;;;17.00;99.90;;;;;;5037037;28;20458;-66
2023/09/29 07:30:47;;;;;;;20.35;9.90;;;17.20;99.90;;;;;;5040650;28;20045;-66
2023/09/29 07:33:14;;;;;;;18.50;9.73;;;17.10;99.90;;;;;;5038710;28;20057;-66
2023/09/29 07:35:41;;;;;;;15.55;8.27;;;17.10;99.90;;;;;;5022578;28;20507;-66
2023/09/29 07:38:07;;;;;;;17.35;8.10;;;17.30;99.90;;;;;;5022711;28;20040;-66
2023/09/29 07:40:33;;;;;;;17.98;7.93;;;17.60;99.90;;;;;;5043421;28;20463;-66
2023/09/29 07:42:59;;;;;;;13.23;8.05;;;18.00;99.90;;;;;;5037658;28;20036;-66
2023/09/29 07:45:25;;;;;;;14.55;8.00;;;18.00;99.90;;;;;;5042881;28;20526;-68
2023/09/29 07:47:51;;;;;;;13.23;7.68;;;18.10;99.90;;;;;;5041602;28;20040;-64
2023/09/29 07:50:17;;;;;;;15.45;7.38;;;18.20;99.90;;;;;;5037507;28;20044;-66
2023/09/29 07:52:43;;;;;;;15.38;7.35;;;18.10;99.90;;;;;;5037708;28;20680;-65
2023/09/29 07:55:11;;;;;;;11.20;7.35;;;18.00;99.90;;;;;;5036687;28;20308;-65
2023/09/29 07:57:38;;;;;;;12.68;6.90;;;18.10;99.90;;;;;;5040661;28;20550;-65
2023/09/29 08:00:12;;;;;;;13.95;7.35;;;18.00;99.90;;;;;;5040478;28;20534;-65
2023/09/29 08:02:39;;;;;;;14.13;6.68;;;18.10;99.90;;;;;;5043348;28;20046;-65
2023/09/29 08:05:07;;;;;;;15.57;6.95;;;18.00;99.90;;;;;;5042491;28;20314;-66
2023/09/29 08:07:33;;;;;;;13.60;6.65;;;18.10;99.90;;;;;;5034151;28;20095;-66
2023/09/29 08:09:59;;;;;;;13.80;7.10;;;18.40;99.90;;;;;;5015901;28;20048;-66
2023/09/29 08:12:25;;;;;;;12.35;6.45;;;18.60;99.90;;;;;;5039694;28;20056;-65
2023/09/29 08:14:50;;;;;;;14.65;6.15;;;18.80;99.90;;;;;;5036690;28;20132;-66
2023/09/29 08:17:18;;;;;;;10.30;6.22;;;18.90;99.90;;;;;;5018693;28;20047;-66
2023/09/29 08:19:44;;;;;;;15.65;6.82;;;18.90;99.90;;;;;;5042091;28;20051;-66
2023/09/29 08:22:10;;;;;;;11.57;5.32;;;19.10;99.90;;;;;;5037041;28;20033;-67
2023/09/29 08:24:36;;;;;;;6.05;4.10;;;19.30;99.90;;;;;;5037256;28;20539;-66
2023/09/29 08:27:02;;;;;;;8.02;4.07;;;19.50;99.90;;;;;;5014564;28;20454;-64
2023/09/29 08:29:29;;;;;;;9.02;3.97;;;19.80;99.90;;;;;;5020674;28;20372;-66
2023/09/29 08:31:56;;;;;;;8.05;3.83;;;20.00;99.90;;;;;;5044252;28;21007;-67
2023/09/29 08:34:22;;;;;;;7.75;2.95;;;20.10;99.90;;;;;;5037237;28;20052;-66
2023/09/29 08:36:47;;;;;;;8.05;3.30;;;20.40;99.90;;;;;;5016164;28;20040;-66
2023/09/29 08:39:13;;;;;;;5.78;2.90;;;20.60;99.90;;;;;;5039384;28;20037;-66
2023/09/29 08:41:48;;;;;;;4.57;1.75;;;20.80;99.90;;;;;;5044533;28;20044;-66
2023/09/29 08:44:18;;;;;;;4.47;2.35;;;20.80;99.90;;;;;;5039216;28;20044;-65
2023/09/29 08:46:47;;;;;;;7.20;2.10;;;20.60;99.90;;;;;;5037221;28;20121;-67
2023/09/29 08:49:16;;;;;;;5.45;2.22;;;20.70;99.90;;;;;;5037846;28;20969;-68
2023/09/29 08:51:46;;;;;;;4.22;1.80;;;20.60;99.90;;;;;;5035461;28;20048;-66
2023/09/29 08:54:14;;;;;;;4.90;1.95;;;20.60;99.90;;;;;;5035354;28;20049;-66
2023/09/29 08:56:40;;;;;;;6.63;1.65;;;20.90;99.90;;;;;;5040642;28;20123;-66
2023/09/29 08:59:06;;;;;;;3.90;1.50;;;21.20;99.90;;;;;;5038435;28;20082;-67
2023/09/29 09:01:32;;;;;;;4.55;1.70;;;21.30;99.90;;;;;;5031299;28;20228;-66
2023/09/29 09:03:59;;;;;;;5.18;1.55;;;21.30;99.90;;;;;;5043722;28;20085;-66
2023/09/29 09:06:26;;;;;;;7.35;1.85;;;21.30;99.90;;;;;;5052912;28;20064;-67
2023/09/29 09:08:54;;;;;;;6.75;1.85;;;21.20;99.90;;;;;;5038100;28;20036;-66
2023/09/29 09:11:21;;;;;;;5.07;1.55;;;21.30;99.90;;;;;;5038883;28;20390;-66
2023/09/29 09:13:59;;;;;;;4.32;1.60;;;21.30;99.90;;;;;;5044372;28;20040;-65
2023/09/29 09:16:26;;;;;;;3.33;1.65;;;21.70;99.90;;;;;;5036415;28;20044;-65
2023/09/29 09:18:52;;;;;;;4.88;1.70;;;21.80;99.90;;;;;;5044893;28;20422;-66
2023/09/29 09:21:18;;;;;;;6.80;2.35;;;22.00;99.90;;;;;;5018101;28;20077;-67
2023/09/29 09:23:45;;;;;;;5.10;2.13;;;22.20;99.90;;;;;;5039719;28;20601;-65
2023/09/29 09:26:13;;;;;;;5.63;1.77;;;22.30;99.90;;;;;;5034451;28;20140;-64
2023/09/29 09:28:40;;;;;;;6.55;2.15;;;22.50;99.90;;;;;;5038613;28;20396;-65
2023/09/29 09:31:06;;;;;;;5.85;1.88;;;22.40;99.90;;;;;;5032681;28;20041;-65
2023/09/29 09:33:32;;;;;;;6.95;1.83;;;22.40;99.90;;;;;;5037168;28;20310;-66
2023/09/29 09:36:10;;;;;;;3.25;1.73;;;22.00;99.90;;;;;;5039506;28;20385;-66
2023/09/29 09:38:37;;;;;;;5.28;1.73;;;21.70;99.90;;;;;;5034244;28;20098;-66
2023/09/29 09:41:04;;;;;;;4.70;1.90;;;21.50;99.90;;;;;;5036505;28;20032;-66
2023/09/29 09:43:34;;;;;;;5.00;1.60;;;21.40;99.90;;;;;;5040363;28;20608;-66
2023/09/29 09:46:07;;;;;;;5.35;1.55;;;21.60;99.90;;;;;;5040096;28;20083;-67
2023/09/29 09:48:55;;;;;;;4.65;1.52;;;21.70;99.90;;;;;;5020248;28;20041;-67
2023/09/29 09:51:38;;;;;;;4.88;1.38;;;21.80;99.90;;;;;;5015064;28;20083;-66
2023/09/29 09:54:08;;;;;;;3.95;1.25;;;22.10;99.90;;;;;;5038871;28;20041;-66
2023/09/29 09:56:55;;;;;;;2.65;1.30;;;22.60;99.90;;;;;;5038306;28;20479;-65
2023/09/29 09:59:22;;;;;;;2.67;0.95;;;22.90;99.90;;;;;;5038903;28;20043;-66
2023/09/29 10:01:51;;;;;;;5.93;1.17;;;23.50;99.90;;;;;;5043530;28;20136;-63
2023/09/29 10:04:18;;;;;;;4.38;1.65;;;24.00;99.90;;;;;;5036858;28;20487;-65
2023/09/29 10:06:45;;;;;;;5.18;1.23;;;24.20;99.90;;;;;;5040273;28;20076;-65
2023/09/29 10:09:11;;;;;;;5.13;1.45;;;24.20;99.90;;;;;;5019952;28;20842;-65
2023/09/29 10:11:42;;;;;;;4.88;1.77;;;24.30;99.90;;;;;;5040685;28;20085;-65
2023/09/29 10:14:08;;;;;;;4.20;1.20;;;24.20;99.90;;;;;;5058126;28;20068;-65
2023/09/29 10:16:35;;;;;;;3.45;1.17;;;24.20;99.90;;;;;;5042569;28;20044;-65
2023/09/29 10:19:06;;;;;;;5.43;1.20;;;23.80;99.90;;;;;;5035919;28;20120;-64
2023/09/29 10:21:45;;;;;;;5.10;1.23;;;23.30;99.90;;;;;;5037071;28;20094;-64
2023/09/29 10:24:23;;;;;;;3.55;1.27;;;23.10;99.90;;;;;;5037371;28;20049;-64
2023/09/29 10:26:48;;;;;;;4.45;1.40;;;22.90;99.90;;;;;;5021940;28;20394;-66
2023/09/29 10:29:38;;;;;;;3.95;1.40;;;22.60;99.90;;;;;;5043481;28;20180;-64
2023/09/29 10:32:13;;;;;;;3.90;1.20;;;22.40;99.90;;;;;;5034330;28;20372;-64
2023/09/29 10:34:40;;;;;;;3.05;1.17;;;22.30;99.90;;;;;;5035803;28;20728;-65
2023/09/29 10:37:06;;;;;;;6.18;1.20;;;22.20;99.90;;;;;;5040496;28;20040;-65
2023/09/29 10:39:32;;;;;;;4.53;1.27;;;22.40;99.90;;;;;;5013980;28;20037;-65
2023/09/29 10:42:15;;;;;;;4.85;1.25;;;22.60;99.90;;;;;;5038564;28;20370;-65
2023/09/29 10:44:52;;;;;;;2.97;0.95;;;22.70;99.90;;;;;;5053983;28;20127;-65
2023/09/29 10:47:33;;;;;;;3.97;1.30;;;22.60;99.90;;;;;;5033834;28;20048;-65
2023/09/29 10:50:03;;;;;;;4.72;1.23;;;22.40;99.90;;;;;;5022543;28;20613;-65
2023/09/29 10:52:30;;;;;;;5.82;1.60;;;22.20;99.90;;;;;;5038574;28;20048;-66
2023/09/29 10:54:58;;;;;;;3.03;1.13;;;21.90;99.90;;;;;;5013576;28;20211;-67
2023/09/29 10:57:26;;;;;;;2.80;1.00;;;22.10;99.90;;;;;;5042819;28;20051;-65
2023/09/29 10:59:59;;;;;;;4.32;1.30;;;22.60;99.90;;;;;;5018252;28;20310;-64
2023/09/29 11:02:33;;;;;;;3.15;1.33;;;22.80;99.90;;;;;;5035314;28;20120;-65
2023/09/29 11:05:02;;;;;;;3.15;0.93;;;22.60;99.90;;;;;;5040549;28;20232;-65
2023/09/29 11:07:29;;;;;;;4.38;1.35;;;22.40;99.90;;;;;;5032447;28;20045;-65
2023/09/29 11:09:59;;;;;;;5.90;1.90;;;22.20;99.90;;;;;;5029476;28;20048;-65
2023/09/29 11:12:27;;;;;;;5.07;1.90;;;22.10;99.90;;;;;;5054279;28;20319;-65
2023/09/29 11:15:07;;;;;;;3.83;1.30;;;21.90;99.90;;;;;;5046857;28;20499;-64
2023/09/29 11:17:45;;;;;;;4.68;1.30;;;21.70;99.90;;;;;;5031201;28;20486;-66
2023/09/29 11:20:25;;;;;;;6.15;1.60;;;21.60;99.90;;;;;;5014584;28;20294;-65
2023/09/29 11:23:06;;;;;;;9.05;2.03;;;21.50;99.90;;;;;;5056825;28;20364;-65
2023/09/29 11:25:43;;;;;;;5.35;1.83;;;21.40;99.90;;;;;;5035532;28;20628;-65
2023/09/29 11:28:12;;;;;;;5.80;1.83;;;21.30;99.90;;;;;;5051666;28;20047;-65
2023/09/29 11:30:39;;;;;;;4.63;1.90;;;21.30;99.90;;;;;;5030796;28;20220;-64
2023/09/29 11:33:06;;;;;;;5.15;2.03;;;21.30;99.90;;;;;;5033366;28;20191;-65
2023/09/29 11:35:32;;;;;;;8.50;2.55;;;21.40;99.90;;;;;;5035609;28;20043;-65
2023/09/29 11:37:58;;;;;;;4.15;2.22;;;21.50;99.90;;;;;;5018371;28;20037;-65
2023/09/29 11:40:24;;;;;;;5.10;1.77;;;21.40;99.90;;;;;;5038522;28;20055;-65
2023/09/29 11:42:49;;;;;;;6.00;2.25;;;21.50;99.90;;;;;;5037634;28;20056;-65
2023/09/29 11:45:15;;;;;;;4.85;2.03;;;21.40;99.90;;;;;;5041252;28;20498;-66
2023/09/29 11:47:44;;;;;;;4.50;2.17;;;21.40;99.90;;;;;;5031883;28;20029;-65
2023/09/29 11:50:11;;;;;;;6.03;2.03;;;21.40;99.90;;;;;;5039124;28;20125;-66
2023/09/29 11:52:41;;;;;;;4.72;1.90;;;21.30;99.90;;;;;;5032905;28;20122;-65
2023/09/29 11:55:13;;;;;;;8.77;2.70;;;21.20;99.90;;;;;;5034495;28;20568;-67
2023/09/29 11:57:42;;;;;;;5.13;2.20;;;21.00;99.90;;;;;;5042039;28;20679;-65
2023/09/29 12:00:10;;;;;;;5.78;2.50;;;20.80;99.90;;;;;;5037561;28;20036;-65
2023/09/29 12:02:39;;;;;;;6.07;2.60;;;20.70;99.90;;;;;;5014150;28;20478;-65
2023/09/29 12:05:06;;;;;;;7.40;2.92;;;20.50;99.90;;;;;;5029340;28;20068;-66
2023/09/29 12:07:32;;;;;;;5.80;3.10;;;20.40;99.90;;;;;;5038244;28;20521;-66
2023/09/29 12:09:58;;;;;;;6.75;3.15;;;20.20;99.90;;;;;;5039472;28;20133;-65
2023/09/29 12:12:24;;;;;;;7.80;3.03;;;20.10;99.90;;;;;;5029697;28;20044;-66
2023/09/29 12:14:52;;;;;;;9.32;4.20;;;20.00;99.90;;;;;;5037167;28;20518;-66
2023/09/29 12:17:18;;;;;;;8.48;4.18;;;20.00;99.90;;;;;;5042875;28;20044;-66
2023/09/29 12:19:44;;;;;;;9.85;4.85;;;19.90;99.90;;;;;;5018299;28;20792;-65
2023/09/29 12:22:09;;;;;;;8.23;4.65;;;19.80;99.90;;;;;;4998866;28;20235;-66
2023/09/29 12:24:35;;;;;;;9.35;5.38;;;19.80;99.90;;;;;;5030614;28;20055;-66
2023/09/29 12:27:01;;;;;;;9.10;5.88;;;19.70;99.90;;;;;;5037230;28;20070;-65
2023/09/29 12:29:29;;;;;;;9.68;6.13;;;19.50;99.90;;;;;;5039875;28;20095;-66
2023/09/29 12:31:55;;;;;;;9.63;6.05;;;19.40;99.90;;;;;;5015264;28;20076;-65
2023/09/29 12:34:20;;;;;;;10.45;6.75;;;19.30;99.90;;;;;;5034774;28;20132;-65
2023/09/29 12:36:46;;;;;;;11.68;7.43;;;19.30;99.90;;;;;;5038977;28;20144;-65
2023/09/29 12:39:12;;;;;;;13.60;8.50;;;19.30;99.90;;;;;;5029266;28;20546;-65
2023/09/29 12:41:38;;;;;;;5.65;2.58;;;19.30;99.90;;;;;;5037698;28;20107;-64